createdAt,value
2022-11-24T00:01:30.741Z,98822.88
2022-11-24T00:04:04.516Z,98826.25
2022-11-24T00:06:34.952Z,98834.84
2022-11-24T00:09:05.211Z,98825.59
2022-11-24T00:11:35.887Z,98830.06
2022-11-24T00:14:05.767Z,98836.03
2022-11-24T00:16:36.061Z,98839.03
2022-11-24T00:19:09.379Z,98835.78
2022-11-24T00:21:38.209Z,98831.31
2022-11-24T00:24:06.947Z,98834.41
2022-11-24T00:26:37.750Z,98839.28
2022-11-24T00:29:07.824Z,98848.81
2022-11-24T00:31:41.750Z,98842.84
2022-11-24T00:34:14.636Z,98844.72
2022-11-24T00:36:43.673Z,98849.59
2022-11-24T00:39:14.307Z,98855.84
2022-11-24T00:41:43.801Z,98857.09
2022-11-24T00:44:12.084Z,98854.38
2022-11-24T00:46:40.265Z,98857.09
2022-11-24T00:49:08.849Z,98864.84
2022-11-24T00:51:37.040Z,98877.84
2022-11-24T00:54:06.400Z,98880.31
2022-11-24T00:56:35.178Z,98870.09
2022-11-24T00:59:04.333Z,98877.72
2022-11-24T01:01:32.493Z,98876.88
2022-11-24T01:04:05.542Z,98869.16
2022-11-24T01:06:35.695Z,98882.19
2022-11-24T01:09:04.503Z,98875.94
2022-11-24T01:11:54.674Z,98876.75
2022-11-24T01:14:24.799Z,98877.03
2022-11-24T01:16:53.449Z,98872.16
2022-11-24T01:19:21.775Z,98865.34
2022-11-24T01:21:50.605Z,98868.72
2022-11-24T01:24:19.130Z,98882.75
2022-11-24T01:26:47.498Z,98878.41
2022-11-24T01:29:15.995Z,98879.34
2022-11-24T01:31:44.483Z,98875.53
2022-11-24T01:34:13.669Z,98887.63
2022-11-24T01:36:42.062Z,98872.03
2022-11-24T01:39:10.636Z,98881.41
2022-11-24T01:41:38.851Z,98877.97
2022-11-24T01:44:26.652Z,98879.75
2022-11-24T01:47:01.033Z,98881.41
2022-11-24T01:49:57.393Z,98882.06
2022-11-24T01:52:32.022Z,98883.97
2022-11-24T01:55:06.959Z,98890.50
2022-11-24T01:57:41.376Z,98888.56
2022-11-24T02:00:13.212Z,98894.66
2022-11-24T02:02:43.901Z,98886.94
2022-11-24T02:05:20.716Z,98879.09
2022-11-24T02:07:49.454Z,98885.84
2022-11-24T02:10:18.027Z,98892.38
2022-11-24T02:12:48.894Z,98886.16
2022-11-24T02:15:18.821Z,98887.34
2022-11-24T02:17:47.267Z,98880.56
2022-11-24T02:20:16.684Z,98886.13
2022-11-24T02:22:55.886Z,98896.59
2022-11-24T02:25:26.851Z,98892.50
2022-11-24T02:27:57.233Z,98891.69
2022-11-24T02:30:25.750Z,98894.28
2022-11-24T02:32:54.326Z,98888.97
2022-11-24T02:35:22.725Z,98888.00
2022-11-24T02:37:51.004Z,98889.78
2022-11-24T02:40:25.696Z,98896.44
2022-11-24T02:42:55.352Z,98893.03
2022-11-24T02:45:24.296Z,98885.69
2022-11-24T02:47:52.794Z,98885.69
2022-11-24T02:50:21.297Z,98890.97
2022-11-24T02:52:49.472Z,98878.34
2022-11-24T02:55:17.627Z,98878.34
2022-11-24T02:57:46.224Z,98886.22
2022-11-24T03:00:14.797Z,98883.78
2022-11-24T03:02:42.884Z,98882.94
2022-11-24T03:05:12.503Z,98894.75
2022-11-24T03:07:40.753Z,98899.59
2022-11-24T03:10:09.371Z,98895.37
2022-11-24T03:12:38.251Z,98899.28
2022-11-24T03:15:06.657Z,98898.34
2022-11-24T03:17:35.064Z,98903.78
2022-11-24T03:20:05.077Z,98903.22
2022-11-24T03:22:33.270Z,98902.41
2022-11-24T03:25:01.404Z,98902.00
2022-11-24T03:27:31.263Z,98904.84
2022-11-24T03:29:59.353Z,98910.25
2022-11-24T03:32:27.670Z,98903.34
2022-11-24T03:34:55.989Z,98911.06
2022-11-24T03:37:24.164Z,98909.19
2022-11-24T03:39:52.289Z,98916.34
2022-11-24T03:42:20.826Z,98916.63
2022-11-24T03:44:48.930Z,98920.00
2022-11-24T03:47:17.047Z,98922.72
2022-11-24T03:49:45.852Z,98919.03
2022-11-24T03:52:14.087Z,98928.63
2022-11-24T03:54:42.689Z,98924.19
2022-11-24T03:57:11.103Z,98921.47
2022-11-24T03:59:39.599Z,98922.53
2022-11-24T04:02:07.866Z,98937.00
2022-11-24T04:04:36.413Z,98929.50
2022-11-24T04:07:04.496Z,98928.88
2022-11-24T04:09:32.797Z,98927.91
2022-11-24T04:12:19.599Z,98930.84
2022-11-24T04:14:47.653Z,98929.31
2022-11-24T04:17:16.050Z,98936.69
2022-11-24T04:19:44.492Z,98927.13
2022-11-24T04:22:12.609Z,98941.25
2022-11-24T04:24:40.997Z,98944.97
2022-11-24T04:27:09.097Z,98951.06
2022-11-24T04:29:40.585Z,98941.41
2022-11-24T04:32:09.086Z,98951.44
2022-11-24T04:34:37.322Z,98948.81
2022-11-24T04:37:05.536Z,98942.28
2022-11-24T04:39:34.142Z,98946.75
2022-11-24T04:42:02.479Z,98944.84
2022-11-24T04:44:30.675Z,98943.19
2022-11-24T04:47:01.016Z,98955.53
2022-11-24T04:49:29.584Z,98960.09
2022-11-24T04:51:57.656Z,98960.91
2022-11-24T04:54:26.278Z,98967.94
2022-11-24T04:56:54.415Z,98969.59
2022-11-24T04:59:22.447Z,98972.78
2022-11-24T05:01:50.983Z,98970.44
2022-11-24T05:04:20.402Z,98977.97
2022-11-24T05:06:48.445Z,98972.44
2022-11-24T05:09:17.561Z,98978.44
2022-11-24T05:11:45.666Z,98988.22
2022-11-24T05:14:13.925Z,98993.75
2022-11-24T05:16:42.359Z,99001.00
2022-11-24T05:19:10.713Z,99004.50
2022-11-24T05:21:39.148Z,99008.59
2022-11-24T05:24:08.587Z,99009.75
2022-11-24T05:26:36.773Z,98996.19
2022-11-24T05:29:05.268Z,99008.69
2022-11-24T05:31:33.766Z,99001.47
2022-11-24T05:34:01.875Z,99009.31
2022-11-24T05:36:48.704Z,99000.06
2022-11-24T05:39:17.149Z,99018.91
2022-11-24T05:41:45.452Z,99017.59
2022-11-24T05:44:13.571Z,99012.44
2022-11-24T05:46:42.075Z,99016.16
2022-11-24T05:49:10.374Z,99028.81
2022-11-24T05:51:38.476Z,99041.63
2022-11-24T05:54:06.998Z,99031.47
2022-11-24T05:56:35.087Z,99028.09
2022-11-24T05:59:09.487Z,99032.19
2022-11-24T06:01:38.331Z,99042.94
2022-11-24T06:04:06.635Z,99048.44
2022-11-24T06:06:34.640Z,99049.59
2022-11-24T06:09:02.771Z,99048.78
2022-11-24T06:11:31.363Z,99047.38
2022-11-24T06:13:59.412Z,99039.91
2022-11-24T06:16:27.746Z,99051.97
2022-11-24T06:18:56.304Z,99051.97
2022-11-24T06:21:24.526Z,99059.00
2022-11-24T06:23:52.580Z,99049.63
2022-11-24T06:26:21.426Z,99061.44
2022-11-24T06:28:49.510Z,99062.97
2022-11-24T06:31:17.864Z,99068.56
2022-11-24T06:33:46.929Z,99075.34
2022-11-24T06:36:15.488Z,99075.34
2022-11-24T06:38:43.750Z,99065.28
2022-11-24T06:41:15.483Z,99078.75
2022-11-24T06:43:44.437Z,99070.87
2022-11-24T06:46:13.082Z,99078.63
2022-11-24T06:48:41.199Z,99083.41
2022-11-24T06:51:13.123Z,99076.38
2022-11-24T06:53:41.537Z,99082.22
2022-11-24T06:56:16.685Z,99089.72
2022-11-24T06:58:48.003Z,99087.47
2022-11-24T07:01:28.102Z,99093.03
2022-11-24T07:03:58.155Z,99093.25
2022-11-24T07:06:26.787Z,99107.28
2022-11-24T07:08:55.173Z,99106.44
2022-11-24T07:11:24.409Z,99108.47
2022-11-24T07:13:56.700Z,99110.22
2022-11-24T07:16:29.193Z,99122.50
2022-11-24T07:18:58.319Z,99120.59
2022-11-24T07:21:27.252Z,99132.00
2022-11-24T07:23:57.201Z,99136.56
2022-11-24T07:26:25.884Z,99136.25
2022-11-24T07:28:53.977Z,99140.66
2022-11-24T07:31:25.059Z,99135.44
2022-11-24T07:33:55.449Z,99148.72
2022-11-24T07:36:24.489Z,99155.00
2022-11-24T07:38:52.614Z,99151.97
2022-11-24T07:41:20.855Z,99146.56
2022-11-24T07:43:51.960Z,99152.78
2022-11-24T07:46:20.808Z,99147.03
2022-11-24T07:48:49.320Z,99157.31
2022-11-24T07:51:17.650Z,99146.34
2022-11-24T07:53:45.943Z,99158.84
2022-11-24T07:56:14.416Z,99157.53
2022-11-24T07:58:43.230Z,99147.22
2022-11-24T08:01:15.221Z,99163.63
2022-11-24T08:03:44.787Z,99152.25
2022-11-24T08:06:37.494Z,99157.97
2022-11-24T08:09:02.565Z,99158.66
2022-11-24T08:11:31.582Z,99166.38
2022-11-24T08:13:59.792Z,99157.72
2022-11-24T08:16:28.469Z,99171.19
2022-11-24T08:18:56.809Z,99175.16
2022-11-24T08:21:25.363Z,99172.72
2022-11-24T08:23:55.103Z,99177.63
2022-11-24T08:26:24.965Z,99181.69
2022-11-24T08:28:59.050Z,99172.94
2022-11-24T08:31:33.648Z,99176.72
2022-11-24T08:34:04.070Z,99176.22
2022-11-24T08:36:33.202Z,99166.16
2022-11-24T08:39:02.146Z,99161.25
2022-11-24T08:41:31.392Z,99166.59
2022-11-24T08:43:59.617Z,99167.34
2022-11-24T08:46:27.997Z,99164.97
2022-11-24T08:48:56.551Z,99163.06
2022-11-24T08:51:26.656Z,99168.22
2022-11-24T08:54:00.800Z,99171.06
2022-11-24T08:56:31.527Z,99170.69
2022-11-24T08:59:00.555Z,99170.87
2022-11-24T09:01:29.533Z,99167.50
2022-11-24T09:03:57.827Z,99168.34
2022-11-24T09:06:31.113Z,99166.47
2022-11-24T09:09:00.146Z,99166.47
2022-11-24T09:11:28.917Z,99164.34
2022-11-24T09:13:57.245Z,99158.53
2022-11-24T09:16:29.063Z,99169.13
2022-11-24T09:19:02.910Z,99175.12
2022-11-24T09:21:34.428Z,99167.50
2022-11-24T09:24:02.482Z,99152.03
2022-11-24T09:26:33.568Z,99169.06
2022-11-24T09:29:03.987Z,99167.00
2022-11-24T09:31:34.583Z,99173.66
2022-11-24T09:34:08.841Z,99168.53
2022-11-24T09:36:37.085Z,99174.38
2022-11-24T09:39:05.581Z,99183.91
2022-11-24T09:41:46.096Z,99166.16
2022-11-24T09:45:06.572Z,99181.28
2022-11-24T09:47:34.649Z,99168.75
2022-11-24T09:50:14.690Z,99169.19
2022-11-24T09:53:05.833Z,99162.66
2022-11-24T09:55:47.887Z,99179.41
2022-11-24T09:58:45.054Z,99169.91
2022-11-24T10:01:19.997Z,99192.19
2022-11-24T10:03:52.784Z,99181.81
2022-11-24T10:06:25.704Z,99204.84
2022-11-24T10:08:54.146Z,99213.25
2022-11-24T10:11:45.165Z,99217.97
2022-11-24T10:14:36.018Z,99204.84
2022-11-24T10:17:17.854Z,99215.53
2022-11-24T10:20:16.866Z,99216.47
2022-11-24T10:23:39.965Z,99214.31
2022-11-24T10:26:33.170Z,99215.84
2022-11-24T10:29:07.405Z,99209.44
2022-11-24T10:31:38.382Z,99222.34
2022-11-24T10:34:25.684Z,99220.69
2022-11-24T10:37:23.485Z,99231.59
2022-11-24T10:40:01.285Z,99240.88
2022-11-24T10:42:38.221Z,99237.97
2022-11-24T10:45:18.516Z,99229.16
2022-11-24T10:47:47.193Z,99243.38
2022-11-24T10:50:25.626Z,99237.06
2022-11-24T10:53:07.240Z,99249.13
2022-11-24T10:55:57.167Z,99251.19
2022-11-24T10:58:38.559Z,99260.72
2022-11-24T11:01:13.491Z,99254.19
2022-11-24T11:03:48.054Z,99258.69
2022-11-24T11:06:28.598Z,99259.38
2022-11-24T11:09:09.359Z,99262.94
2022-11-24T11:11:39.915Z,99268.91
2022-11-24T11:14:12.704Z,99265.66
2022-11-24T11:16:45.953Z,99273.12
2022-11-24T11:19:48.908Z,99263.75
2022-11-24T11:22:26.787Z,99279.56
2022-11-24T11:25:10.669Z,99281.22
2022-11-24T11:27:40.537Z,99283.38
2022-11-24T11:36:14.816Z,99281.72
2022-11-24T11:38:44.220Z,99286.72
2022-11-24T11:41:36.057Z,99287.63
2022-11-24T11:44:23.046Z,99291.38
2022-11-24T11:46:53.716Z,99295.72
2022-11-24T11:49:21.846Z,99297.50
2022-11-24T11:52:12.325Z,99303.91
2022-11-24T11:54:40.726Z,99296.97
2022-11-24T11:57:25.142Z,99300.25
2022-11-24T12:00:13.034Z,99300.91
2022-11-24T12:03:32.481Z,99304.72
2022-11-24T12:06:25.283Z,99302.00
2022-11-24T12:09:19.356Z,99311.81
2022-11-24T12:11:53.740Z,99301.06
2022-11-24T12:14:44.873Z,99291.00
2022-11-24T12:17:18.966Z,99301.06
2022-11-24T12:20:28.921Z,99305.72
2022-11-24T12:23:15.235Z,99299.41
2022-11-24T12:26:06.739Z,99301.06
2022-11-24T12:28:52.733Z,99293.72
2022-11-24T12:31:45.401Z,99310.75
2022-11-24T12:34:27.590Z,99313.19
2022-11-24T12:37:12.940Z,99303.06
2022-11-24T12:40:02.051Z,99312.50
2022-11-24T12:42:48.467Z,99313.44
2022-11-24T12:45:33.337Z,99317.78
2022-11-24T12:48:21.170Z,99309.34
2022-11-24T12:50:51.619Z,99311.41
2022-11-24T12:53:24.836Z,99320.94
2022-11-24T12:55:54.723Z,99314.13
2022-11-24T12:58:32.428Z,99312.63
2022-11-24T13:01:17.162Z,99315.50
2022-11-24T13:04:10.786Z,99311.16
2022-11-24T13:07:02.373Z,99308.03
2022-11-24T13:09:30.939Z,99299.59
2022-11-24T13:12:14.153Z,99304.50
2022-11-24T13:14:49.823Z,99300.66
2022-11-24T13:17:39.599Z,99317.13
2022-11-24T13:20:21.739Z,99306.06
2022-11-24T13:22:53.166Z,99321.59
2022-11-24T13:25:23.825Z,99320.09
2022-11-24T13:27:53.882Z,99317.50
2022-11-24T13:30:34.664Z,99322.81
2022-11-24T13:33:16.514Z,99324.31
2022-11-24T13:36:04.705Z,99322.41
2022-11-24T13:38:39.104Z,99318.31
2022-11-24T13:41:33.577Z,99327.84
2022-11-24T13:44:15.357Z,99332.22
2022-11-24T13:47:25.827Z,99340.50
2022-11-24T13:49:54.219Z,99336.16
2022-11-24T13:52:41.481Z,99343.78
2022-11-24T13:55:12.356Z,99346.50
2022-11-24T13:57:52.111Z,99346.66
2022-11-24T14:00:23.169Z,99364.62
2022-11-24T14:02:54.655Z,99363.38
2022-11-24T14:05:33.644Z,99366.34
2022-11-24T14:08:03.030Z,99368.66
2022-11-24T14:10:37.843Z,99378.19
2022-11-24T14:13:27.690Z,99383.06
2022-11-24T14:16:06.824Z,99385.66
2022-11-24T14:18:41.184Z,99380.84
2022-11-24T14:21:22.966Z,99385.66
2022-11-24T14:24:12.169Z,99388.53
2022-11-24T14:26:41.423Z,99377.13
2022-11-24T14:29:24.272Z,99383.94
2022-11-24T14:31:55.199Z,99383.91
2022-11-24T14:34:26.330Z,99378.66
2022-11-24T14:36:56.378Z,99380.53
2022-11-24T14:39:26.924Z,99385.72
2022-11-24T14:41:58.985Z,99387.09
2022-11-24T14:44:31.817Z,99376.75
2022-11-24T14:47:13.171Z,99387.06
2022-11-24T14:49:43.242Z,99388.44
2022-11-24T14:52:18.442Z,99390.97
2022-11-24T14:54:50.916Z,99399.75
2022-11-24T14:57:31.161Z,99392.50
2022-11-24T15:00:09.087Z,99395.12
2022-11-24T15:02:50.541Z,99391.06
2022-11-24T15:05:54.119Z,99404.94
2022-11-24T15:08:24.913Z,99412.28
2022-11-24T15:11:02.146Z,99416.16
2022-11-24T15:13:37.284Z,99419.84
2022-11-24T15:16:14.865Z,99415.19
2022-11-24T15:18:45.954Z,99421.81
2022-11-24T15:21:19.247Z,99410.91
2022-11-24T15:24:15.839Z,99418.84
2022-11-24T15:26:44.902Z,99125.44
2022-11-24T15:29:13.601Z,99418.88
2022-11-24T15:31:47.693Z,99426.22
2022-11-24T15:34:17.783Z,99432.84
2022-11-24T15:36:45.903Z,99426.09
2022-11-24T15:39:14.022Z,99427.47
2022-11-24T15:41:42.479Z,99425.03
2022-11-24T15:44:10.658Z,99429.69
2022-11-24T15:46:39.710Z,99435.09
2022-11-24T15:49:08.324Z,99436.94
2022-11-24T15:51:42.644Z,99431.72
2022-11-24T15:54:16.988Z,99438.53
2022-11-24T15:56:45.537Z,99436.44
2022-11-24T15:59:20.847Z,99443.69
2022-11-24T16:01:50.929Z,99437.13
2022-11-24T16:04:24.122Z,99444.13
2022-11-24T16:06:52.544Z,99453.00
2022-11-24T16:09:20.928Z,99447.53
2022-11-24T16:11:49.151Z,99460.75
2022-11-24T16:14:17.574Z,99462.09
2022-11-24T16:16:45.980Z,99464.47
2022-11-24T16:19:16.045Z,99466.56
2022-11-24T16:21:48.157Z,99470.16
2022-11-24T16:24:17.006Z,99473.53
2022-11-24T16:26:45.260Z,99473.00
2022-11-24T16:29:13.520Z,99470.41
2022-11-24T16:31:43.611Z,99469.16
2022-11-24T16:34:12.030Z,99475.00
2022-11-24T16:36:40.327Z,99471.41
2022-11-24T16:39:08.970Z,99485.56
2022-11-24T16:41:37.212Z,99485.97
2022-11-24T16:44:05.589Z,99488.84
2022-11-24T16:46:34.240Z,99492.44
2022-11-24T16:49:03.656Z,99491.50
2022-11-24T16:51:34.920Z,99502.91
2022-11-24T16:54:04.064Z,99497.78
2022-11-24T16:56:32.717Z,99512.78
2022-11-24T16:59:01.472Z,99510.78
2022-11-24T17:01:30.359Z,99515.53
2022-11-24T17:03:59.295Z,99510.59
2022-11-24T17:06:28.556Z,99512.09
2022-11-24T17:08:57.118Z,99509.66
2022-11-24T17:11:28.160Z,99508.00
2022-11-24T17:13:58.309Z,99519.16
2022-11-24T17:16:27.286Z,99522.81
2022-11-24T17:18:58.701Z,99528.53
2022-11-24T17:21:28.334Z,99519.97
2022-11-24T17:24:01.551Z,99524.78
2022-11-24T17:26:30.036Z,99533.34
2022-11-24T17:28:58.306Z,99536.72
2022-11-24T17:31:32.333Z,99529.66
2022-11-24T17:34:01.534Z,99536.25
2022-11-24T17:36:32.092Z,99544.00
2022-11-24T17:39:04.801Z,99539.31
2022-11-24T17:41:33.422Z,99553.72
2022-11-24T17:44:02.917Z,99555.94
2022-11-24T17:46:31.418Z,99559.06
2022-11-24T17:48:59.702Z,99541.38
2022-11-24T17:51:29.380Z,99558.00
2022-11-24T17:53:58.230Z,99556.84
2022-11-24T17:56:27.924Z,99563.41
2022-11-24T17:58:59.411Z,99564.34
2022-11-24T18:01:32.282Z,99569.25
2022-11-24T18:04:01.618Z,99572.81
2022-11-24T18:06:30.272Z,99582.75
2022-11-24T18:08:58.645Z,99588.03
2022-11-24T18:11:31.851Z,99581.47
2022-11-24T18:14:03.094Z,99585.09
2022-11-24T18:16:34.309Z,99598.09
2022-11-24T18:19:08.928Z,99602.81
2022-11-24T18:21:40.468Z,99610.19
2022-11-24T18:24:10.962Z,99606.69
2022-11-24T18:26:42.662Z,99606.91
2022-11-24T18:29:11.496Z,99612.44
2022-11-24T18:31:40.266Z,99621.56
2022-11-24T18:34:08.951Z,99614.06
2022-11-24T18:36:37.351Z,99621.00
2022-11-24T18:39:08.825Z,99621.56
2022-11-24T18:41:37.320Z,99622.38
2022-11-24T18:44:08.487Z,99639.25
2022-11-24T18:46:38.011Z,99633.06
2022-11-24T18:49:07.471Z,99650.16
2022-11-24T18:51:35.859Z,99646.03
2022-11-24T18:54:05.551Z,99645.66
2022-11-24T18:56:34.178Z,99647.47
2022-11-24T18:59:02.495Z,99644.19
2022-11-24T19:01:32.448Z,99659.00
2022-11-24T19:04:03.024Z,99656.19
2022-11-24T19:06:35.200Z,99648.47
2022-11-24T19:09:07.486Z,99660.34
2022-11-24T19:11:38.559Z,99656.81
2022-11-24T19:14:10.730Z,99659.53
2022-11-24T19:16:39.573Z,99667.44
2022-11-24T19:19:10.314Z,99665.34
2022-11-24T19:21:41.051Z,99675.16
2022-11-24T19:24:13.038Z,99675.94
2022-11-24T19:26:41.524Z,99684.19
2022-11-24T19:29:10.167Z,99682.19
2022-11-24T19:31:39.754Z,99693.66
2022-11-24T19:34:08.543Z,99691.28
2022-11-24T19:36:37.689Z,99699.56
2022-11-24T19:39:07.003Z,99685.19
2022-11-24T19:41:35.685Z,99696.16
2022-11-24T19:44:04.861Z,99696.25
2022-11-24T19:46:33.556Z,99698.66
2022-11-24T19:49:02.798Z,99706.16
2022-11-24T19:51:37.292Z,99702.63
2022-11-24T19:54:10.403Z,99703.59
2022-11-24T19:56:39.182Z,99708.47
2022-11-24T19:59:10.792Z,99715.38
2022-11-24T20:01:40.770Z,99715.50
2022-11-24T20:04:12.416Z,99716.91
2022-11-24T20:06:43.693Z,99709.94
2022-11-24T20:09:15.655Z,99718.69
2022-11-24T20:11:44.974Z,99724.47
2022-11-24T20:14:15.463Z,99721.72
2022-11-24T20:16:45.626Z,99720.16
2022-11-24T20:19:17.170Z,99728.50
2022-11-24T20:21:50.325Z,99727.56
2022-11-24T20:24:21.303Z,99736.53
2022-11-24T20:26:52.521Z,99736.13
2022-11-24T20:29:22.147Z,99733.44
2022-11-24T20:31:55.562Z,99736.13
2022-11-24T20:34:26.291Z,99742.72
2022-11-24T20:36:54.436Z,99741.59
2022-11-24T20:39:28.004Z,99755.06
2022-11-24T20:41:56.834Z,99751.03
2022-11-24T20:44:27.328Z,99752.62
2022-11-24T20:46:58.214Z,99746.72
2022-11-24T20:49:26.919Z,99748.59
2022-11-24T20:51:57.207Z,99755.69
2022-11-24T20:54:25.886Z,99759.38
2022-11-24T20:56:54.398Z,99756.19
2022-11-24T20:59:25.003Z,99756.94
2022-11-24T21:01:55.541Z,99754.34
2022-11-24T21:04:26.140Z,99755.59
2022-11-24T21:06:55.132Z,99756.81
2022-11-24T21:09:24.884Z,99758.69
2022-11-24T21:11:54.652Z,99754.34
2022-11-24T21:14:24.401Z,99768.25
2022-11-24T21:16:53.257Z,99764.94
2022-11-24T21:19:21.630Z,99771.06
2022-11-24T21:21:50.123Z,99776.59
2022-11-24T21:24:21.849Z,99780.72
2022-11-24T21:26:52.689Z,99780.09
2022-11-24T21:29:23.716Z,99785.25
2022-11-24T21:31:52.607Z,99792.25
2022-11-24T21:34:21.265Z,99787.53
2022-11-24T21:36:49.599Z,99787.44
2022-11-24T21:39:18.600Z,99793.81
2022-11-24T21:41:47.739Z,99805.56
2022-11-24T21:44:16.275Z,99796.09
2022-11-24T21:46:49.641Z,99798.31
2022-11-24T21:49:22.825Z,99792.06
2022-11-24T21:51:55.467Z,99787.53
2022-11-24T21:54:24.539Z,99796.88
2022-11-24T21:56:53.579Z,99792.88
2022-11-24T21:59:22.469Z,99798.25
2022-11-24T22:01:50.925Z,99798.03
2022-11-24T22:04:19.314Z,99795.25
2022-11-24T22:06:47.400Z,99789.09
2022-11-24T22:09:18.185Z,99800.09
2022-11-24T22:11:49.373Z,99801.03
2022-11-24T22:14:17.884Z,99803.94
2022-11-24T22:16:46.386Z,99798.25
2022-11-24T22:19:14.760Z,99810.31
2022-11-24T22:21:43.181Z,99796.69
2022-11-24T22:24:11.657Z,99817.63
2022-11-24T22:26:40.085Z,99822.94
2022-11-24T22:29:08.504Z,99808.94
2022-11-24T22:31:36.767Z,99818.50
2022-11-24T22:34:05.205Z,99815.63
2022-11-24T22:36:33.266Z,99825.34
2022-11-24T22:39:03.641Z,99821.31
2022-11-24T22:41:34.777Z,99832.25
2022-11-24T22:44:03.049Z,99830.06
2022-11-24T22:46:32.437Z,99830.88
2022-11-24T22:49:01.497Z,99834.00
2022-11-24T22:51:32.935Z,99826.66
2022-11-24T22:54:03.626Z,99836.59
2022-11-24T22:56:32.865Z,99838.41
2022-11-24T22:59:02.472Z,99833.16
2022-11-24T23:01:33.727Z,99838.53
2022-11-24T23:04:02.494Z,99835.22
2022-11-24T23:06:32.656Z,99844.38
2022-11-24T23:09:02.273Z,99850.66
2022-11-24T23:11:38.044Z,99853.06
2022-11-24T23:14:15.343Z,99850.59
2022-11-24T23:16:44.174Z,99863.66
2022-11-24T23:19:12.403Z,99858.19
2022-11-24T23:21:40.669Z,99862.94
2022-11-24T23:24:10.550Z,99873.03
2022-11-24T23:26:40.847Z,99862.63
2022-11-24T23:29:10.367Z,99864.28
2022-11-24T23:31:41.358Z,99863.47
2022-11-24T23:34:10.076Z,99867.25
2022-11-24T23:36:38.516Z,99877.38
2022-11-24T23:39:08.908Z,99866.53
2022-11-24T23:41:37.356Z,99871.25
2022-11-24T23:44:06.006Z,99876.31
2022-11-24T23:46:34.089Z,99875.28
2022-11-24T23:49:02.427Z,99880.66
2022-11-24T23:51:32.753Z,99887.25
2022-11-24T23:54:01.128Z,99888.69
2022-11-24T23:56:32.803Z,99888.38
2022-11-24T23:59:03.287Z,99879.53
